sensor_id;sensor_type;location;lat;lon;timestamp;P1;durP1;ratioP1;P2;durP2;ratioP2
48727;SDS011;34527;45.618;5.130;2022-08-01T00:01:34;4.35;;;2.08;;
48727;SDS011;34527;45.618;5.130;2022-08-01T00:04:01;4.25;;;1.90;;
48727;SDS011;34527;45.618;5.130;2022-08-01T00:06:27;2.75;;;1.80;;
48727;SDS011;34527;45.618;5.130;2022-08-01T00:08:53;2.42;;;2.10;;
48727;SDS011;34527;45.618;5.130;2022-08-01T00:11:19;5.85;;;2.05;;
48727;SDS011;34527;45.618;5.130;2022-08-01T00:13:45;2.35;;;1.98;;
48727;SDS011;34527;45.618;5.130;2022-08-01T00:16:11;4.38;;;1.83;;
48727;SDS011;34527;45.618;5.130;2022-08-01T00:18:37;3.72;;;2.10;;
48727;SDS011;34527;45.618;5.130;2022-08-01T00:21:03;8.25;;;2.13;;
48727;SDS011;34527;45.618;5.130;2022-08-01T00:23:29;2.42;;;1.85;;
48727;SDS011;34527;45.618;5.130;2022-08-01T00:25:56;4.05;;;2.10;;
48727;SDS011;34527;45.618;5.130;2022-08-01T00:28:22;2.58;;;2.05;;
48727;SDS011;34527;45.618;5.130;2022-08-01T00:30:48;4.53;;;1.90;;
48727;SDS011;34527;45.618;5.130;2022-08-01T00:33:13;4.18;;;2.00;;
48727;SDS011;34527;45.618;5.130;2022-08-01T00:35:39;4.03;;;2.08;;
48727;SDS011;34527;45.618;5.130;2022-08-01T00:38:05;3.72;;;2.42;;
48727;SDS011;34527;45.618;5.130;2022-08-01T00:40:31;2.00;;;1.90;;
48727;SDS011;34527;45.618;5.130;2022-08-01T00:42:57;3.05;;;2.00;;
48727;SDS011;34527;45.618;5.130;2022-08-01T00:45:23;1.85;;;1.70;;
48727;SDS011;34527;45.618;5.130;2022-08-01T00:47:49;3.10;;;1.80;;
48727;SDS011;34527;45.618;5.130;2022-08-01T00:50:15;2.83;;;2.10;;
48727;SDS011;34527;45.618;5.130;2022-08-01T00:52:41;2.47;;;1.90;;
48727;SDS011;34527;45.618;5.130;2022-08-01T00:55:09;3.90;;;2.03;;
48727;SDS011;34527;45.618;5.130;2022-08-01T00:57:37;3.15;;;2.10;;
48727;SDS011;34527;45.618;5.130;2022-08-01T01:00:04;4.22;;;1.95;;
48727;SDS011;34527;45.618;5.130;2022-08-01T01:02:31;2.92;;;2.03;;
48727;SDS011;34527;45.618;5.130;2022-08-01T01:04:57;2.35;;;1.92;;
48727;SDS011;34527;45.618;5.130;2022-08-01T01:10:15;2.40;;;2.20;;
48727;SDS011;34527;45.618;5.130;2022-08-01T01:15:18;3.40;;;2.00;;
48727;SDS011;34527;45.618;5.130;2022-08-01T01:20:20;2.85;;;2.30;;
48727;SDS011;34527;45.618;5.130;2022-08-01T01:23:10;2.67;;;1.95;;
48727;SDS011;34527;45.618;5.130;2022-08-01T01:31:25;5.30;;;2.25;;
48727;SDS011;34527;45.618;5.130;2022-08-01T01:33:52;3.47;;;2.00;;
48727;SDS011;34527;45.618;5.130;2022-08-01T01:36:20;3.75;;;2.38;;
48727;SDS011;34527;45.618;5.130;2022-08-01T01:38:49;4.07;;;2.30;;
48727;SDS011;34527;45.618;5.130;2022-08-01T01:41:17;2.33;;;2.10;;
48727;SDS011;34527;45.618;5.130;2022-08-01T01:43:43;2.00;;;1.80;;
48727;SDS011;34527;45.618;5.130;2022-08-01T01:46:12;3.03;;;2.20;;
48727;SDS011;34527;45.618;5.130;2022-08-01T01:48:42;3.05;;;2.13;;
48727;SDS011;34527;45.618;5.130;2022-08-01T01:51:10;4.90;;;2.60;;
48727;SDS011;34527;45.618;5.130;2022-08-01T01:53:38;2.38;;;2.17;;
48727;SDS011;34527;45.618;5.130;2022-08-01T01:56:06;2.13;;;1.90;;
48727;SDS011;34527;45.618;5.130;2022-08-01T01:58:34;2.20;;;2.00;;
48727;SDS011;34527;45.618;5.130;2022-08-01T02:01:02;3.55;;;2.15;;
48727;SDS011;34527;45.618;5.130;2022-08-01T02:03:29;2.72;;;1.80;;
48727;SDS011;34527;45.618;5.130;2022-08-01T02:05:56;2.20;;;2.00;;
48727;SDS011;34527;45.618;5.130;2022-08-01T02:08:24;2.20;;;2.00;;
48727;SDS011;34527;45.618;5.130;2022-08-01T02:10:51;2.05;;;1.90;;
48727;SDS011;34527;45.618;5.130;2022-08-01T02:13:37;4.38;;;1.95;;
48727;SDS011;34527;45.618;5.130;2022-08-01T02:16:05;4.65;;;2.30;;
48727;SDS011;34527;45.618;5.130;2022-08-01T02:18:33;2.47;;;2.00;;
48727;SDS011;34527;45.618;5.130;2022-08-01T02:20:59;3.88;;;2.40;;
48727;SDS011;34527;45.618;5.130;2022-08-01T02:23:28;2.08;;;1.80;;
48727;SDS011;34527;45.618;5.130;2022-08-01T02:25:58;1.63;;;1.50;;
48727;SDS011;34527;45.618;5.130;2022-08-01T02:28:29;2.22;;;2.00;;
48727;SDS011;34527;45.618;5.130;2022-08-01T02:31:06;2.15;;;1.95;;
48727;SDS011;34527;45.618;5.130;2022-08-01T02:33:38;3.33;;;1.90;;
48727;SDS011;34527;45.618;5.130;2022-08-01T02:36:06;2.28;;;2.08;;
48727;SDS011;34527;45.618;5.130;2022-08-01T02:38:34;2.10;;;1.90;;
48727;SDS011;34527;45.618;5.130;2022-08-01T02:41:04;3.05;;;2.20;;
48727;SDS011;34527;45.618;5.130;2022-08-01T02:43:47;2.88;;;2.13;;
48727;SDS011;34527;45.618;5.130;2022-08-01T02:46:19;2.80;;;1.83;;
48727;SDS011;34527;45.618;5.130;2022-08-01T02:48:51;3.47;;;2.00;;
48727;SDS011;34527;45.618;5.130;2022-08-01T02:51:21;2.47;;;1.90;;
48727;SDS011;34527;45.618;5.130;2022-08-01T02:53:48;5.05;;;2.97;;
48727;SDS011;34527;45.618;5.130;2022-08-01T02:56:15;2.10;;;1.80;;
48727;SDS011;34527;45.618;5.130;2022-08-01T02:58:44;2.38;;;1.80;;
48727;SDS011;34527;45.618;5.130;2022-08-01T03:01:13;4.63;;;2.17;;
48727;SDS011;34527;45.618;5.130;2022-08-01T03:03:40;2.25;;;2.05;;
48727;SDS011;34527;45.618;5.130;2022-08-01T03:06:06;3.13;;;2.00;;
48727;SDS011;34527;45.618;5.130;2022-08-01T03:08:35;4.10;;;2.00;;
48727;SDS011;34527;45.618;5.130;2022-08-01T03:11:02;2.00;;;1.77;;
48727;SDS011;34527;45.618;5.130;2022-08-01T03:13:31;3.35;;;2.00;;
48727;SDS011;34527;45.618;5.130;2022-08-01T03:15:58;7.30;;;2.33;;
48727;SDS011;34527;45.618;5.130;2022-08-01T03:18:25;2.80;;;1.83;;
48727;SDS011;34527;45.618;5.130;2022-08-01T03:20:54;4.45;;;2.10;;
48727;SDS011;34527;45.618;5.130;2022-08-01T03:23:21;3.28;;;2.20;;
48727;SDS011;34527;45.618;5.130;2022-08-01T03:25:49;2.05;;;1.92;;
48727;SDS011;34527;45.618;5.130;2022-08-01T03:28:16;6.13;;;2.33;;
48727;SDS011;34527;45.618;5.130;2022-08-01T03:30:46;3.45;;;2.10;;
48727;SDS011;34527;45.618;5.130;2022-08-01T03:33:14;2.47;;;1.75;;
48727;SDS011;34527;45.618;5.130;2022-08-01T03:35:42;3.20;;;2.10;;
48727;SDS011;34527;45.618;5.130;2022-08-01T03:38:13;2.85;;;2.40;;
48727;SDS011;34527;45.618;5.130;2022-08-01T03:40:47;2.60;;;1.98;;
48727;SDS011;34527;45.618;5.130;2022-08-01T03:46:39;2.15;;;1.98;;
48727;SDS011;34527;45.618;5.130;2022-08-01T03:49:14;4.15;;;2.20;;
48727;SDS011;34527;45.618;5.130;2022-08-01T03:51:52;2.53;;;2.08;;
48727;SDS011;34527;45.618;5.130;2022-08-01T03:54:23;3.60;;;2.25;;
48727;SDS011;34527;45.618;5.130;2022-08-01T03:56:51;2.20;;;2.10;;
48727;SDS011;34527;45.618;5.130;2022-08-01T03:59:18;3.22;;;2.00;;
48727;SDS011;34527;45.618;5.130;2022-08-01T04:01:45;3.95;;;2.25;;
48727;SDS011;34527;45.618;5.130;2022-08-01T04:04:12;2.30;;;2.00;;
48727;SDS011;34527;45.618;5.130;2022-08-01T04:06:39;2.30;;;2.10;;
48727;SDS011;34527;45.618;5.130;2022-08-01T04:09:09;2.55;;;2.22;;
48727;SDS011;34527;45.618;5.130;2022-08-01T04:11:35;4.10;;;2.53;;
48727;SDS011;34527;45.618;5.130;2022-08-01T04:14:01;3.05;;;2.28;;
48727;SDS011;34527;45.618;5.130;2022-08-01T04:16:27;5.78;;;2.50;;
48727;SDS011;34527;45.618;5.130;2022-08-01T04:18:53;2.40;;;2.20;;
48727;SDS011;34527;45.618;5.130;2022-08-01T04:21:20;2.55;;;2.10;;
48727;SDS011;34527;45.618;5.130;2022-08-01T04:23:49;2.55;;;2.05;;
48727;SDS011;34527;45.618;5.130;2022-08-01T04:26:18;2.28;;;2.08;;
48727;SDS011;34527;45.618;5.130;2022-08-01T04:28:45;2.22;;;2.00;;
48727;SDS011;34527;45.618;5.130;2022-08-01T04:31:12;3.28;;;2.33;;
48727;SDS011;34527;45.618;5.130;2022-08-01T04:33:42;4.57;;;2.05;;
48727;SDS011;34527;45.618;5.130;2022-08-01T04:36:11;3.22;;;2.10;;
48727;SDS011;34527;45.618;5.130;2022-08-01T04:38:40;2.22;;;2.00;;
48727;SDS011;34527;45.618;5.130;2022-08-01T04:41:12;2.65;;;2.00;;
48727;SDS011;34527;45.618;5.130;2022-08-01T04:43:39;2.33;;;2.13;;
48727;SDS011;34527;45.618;5.130;2022-08-01T04:46:06;5.90;;;2.30;;
48727;SDS011;34527;45.618;5.130;2022-08-01T04:48:37;2.53;;;2.28;;
48727;SDS011;34527;45.618;5.130;2022-08-01T04:51:04;4.47;;;2.35;;
48727;SDS011;34527;45.618;5.130;2022-08-01T04:53:35;2.55;;;1.92;;
48727;SDS011;34527;45.618;5.130;2022-08-01T04:56:01;3.30;;;2.42;;
48727;SDS011;34527;45.618;5.130;2022-08-01T04:58:27;2.50;;;1.80;;
48727;SDS011;34527;45.618;5.130;2022-08-01T05:00:53;2.80;;;1.88;;
48727;SDS011;34527;45.618;5.130;2022-08-01T05:03:19;4.32;;;2.20;;
48727;SDS011;34527;45.618;5.130;2022-08-01T05:05:45;4.68;;;2.33;;
48727;SDS011;34527;45.618;5.130;2022-08-01T05:08:11;3.55;;;2.25;;
48727;SDS011;34527;45.618;5.130;2022-08-01T05:10:37;3.65;;;2.20;;
48727;SDS011;34527;45.618;5.130;2022-08-01T05:13:03;5.38;;;2.40;;
48727;SDS011;34527;45.618;5.130;2022-08-01T05:15:29;2.42;;;2.22;;
48727;SDS011;34527;45.618;5.130;2022-08-01T05:17:55;2.10;;;1.92;;
48727;SDS011;34527;45.618;5.130;2022-08-01T05:20:21;3.67;;;2.28;;
48727;SDS011;34527;45.618;5.130;2022-08-01T05:22:47;5.32;;;2.15;;
48727;SDS011;34527;45.618;5.130;2022-08-01T05:25:13;2.05;;;1.85;;
48727;SDS011;34527;45.618;5.130;2022-08-01T05:27:39;2.22;;;2.00;;
48727;SDS011;34527;45.618;5.130;2022-08-01T05:30:06;2.72;;;2.05;;
48727;SDS011;34527;45.618;5.130;2022-08-01T05:32:33;4.20;;;2.10;;
48727;SDS011;34527;45.618;5.130;2022-08-01T05:34:59;2.13;;;1.90;;
48727;SDS011;34527;45.618;5.130;2022-08-01T05:37:25;2.30;;;2.10;;
48727;SDS011;34527;45.618;5.130;2022-08-01T05:39:51;3.55;;;2.20;;
48727;SDS011;34527;45.618;5.130;2022-08-01T05:42:16;4.95;;;2.00;;
48727;SDS011;34527;45.618;5.130;2022-08-01T05:44:42;4.65;;;2.50;;
48727;SDS011;34527;45.618;5.130;2022-08-01T05:47:08;10.38;;;2.47;;
48727;SDS011;34527;45.618;5.130;2022-08-01T05:49:34;8.02;;;2.17;;
48727;SDS011;34527;45.618;5.130;2022-08-01T05:52:00;10.70;;;2.10;;
48727;SDS011;34527;45.618;5.130;2022-08-01T05:54:27;3.13;;;2.15;;
48727;SDS011;34527;45.618;5.130;2022-08-01T05:56:53;5.88;;;2.05;;
48727;SDS011;34527;45.618;5.130;2022-08-01T05:59:24;4.38;;;2.10;;
48727;SDS011;34527;45.618;5.130;2022-08-01T06:01:50;3.72;;;2.08;;
48727;SDS011;34527;45.618;5.130;2022-08-01T06:04:16;3.50;;;1.92;;
48727;SDS011;34527;45.618;5.130;2022-08-01T06:06:42;3.65;;;2.13;;
48727;SDS011;34527;45.618;5.130;2022-08-01T06:09:08;11.40;;;2.45;;
48727;SDS011;34527;45.618;5.130;2022-08-01T06:11:34;2.05;;;1.85;;
48727;SDS011;34527;45.618;5.130;2022-08-01T06:14:00;5.35;;;1.90;;
48727;SDS011;34527;45.618;5.130;2022-08-01T06:16:26;2.08;;;1.90;;
48727;SDS011;34527;45.618;5.130;2022-08-01T06:18:52;5.07;;;2.00;;
48727;SDS011;34527;45.618;5.130;2022-08-01T06:21:18;5.45;;;2.10;;
48727;SDS011;34527;45.618;5.130;2022-08-01T06:23:44;5.15;;;2.05;;
48727;SDS011;34527;45.618;5.130;2022-08-01T06:26:10;3.75;;;1.80;;
48727;SDS011;34527;45.618;5.130;2022-08-01T06:28:36;2.28;;;1.90;;
48727;SDS011;34527;45.618;5.130;2022-08-01T06:31:02;7.80;;;1.98;;
48727;SDS011;34527;45.618;5.130;2022-08-01T06:33:28;5.72;;;2.00;;
48727;SDS011;34527;45.618;5.130;2022-08-01T06:35:54;2.95;;;1.83;;
48727;SDS011;34527;45.618;5.130;2022-08-01T06:38:20;2.67;;;1.90;;
48727;SDS011;34527;45.618;5.130;2022-08-01T06:40:46;6.78;;;2.13;;
48727;SDS011;34527;45.618;5.130;2022-08-01T06:43:12;4.75;;;2.30;;
48727;SDS011;34527;45.618;5.130;2022-08-01T06:45:41;4.60;;;2.15;;
48727;SDS011;34527;45.618;5.130;2022-08-01T06:48:07;5.45;;;2.10;;
48727;SDS011;34527;45.618;5.130;2022-08-01T06:50:33;6.22;;;2.28;;
48727;SDS011;34527;45.618;5.130;2022-08-01T06:53:00;2.67;;;2.15;;
48727;SDS011;34527;45.618;5.130;2022-08-01T06:55:26;4.93;;;2.33;;
48727;SDS011;34527;45.618;5.130;2022-08-01T06:57:53;4.70;;;2.05;;
48727;SDS011;34527;45.618;5.130;2022-08-01T07:00:19;6.28;;;2.30;;
48727;SDS011;34527;45.618;5.130;2022-08-01T07:02:50;6.28;;;2.20;;
48727;SDS011;34527;45.618;5.130;2022-08-01T07:05:17;5.88;;;2.20;;
48727;SDS011;34527;45.618;5.130;2022-08-01T07:07:44;6.30;;;2.42;;
48727;SDS011;34527;45.618;5.130;2022-08-01T07:10:10;6.28;;;1.90;;
48727;SDS011;34527;45.618;5.130;2022-08-01T07:12:36;6.93;;;2.17;;
48727;SDS011;34527;45.618;5.130;2022-08-01T07:15:07;6.78;;;2.40;;
48727;SDS011;34527;45.618;5.130;2022-08-01T07:17:38;4.88;;;2.28;;
48727;SDS011;34527;45.618;5.130;2022-08-01T07:20:06;6.40;;;2.28;;
48727;SDS011;34527;45.618;5.130;2022-08-01T07:22:36;10.40;;;2.10;;
48727;SDS011;34527;45.618;5.130;2022-08-01T07:25:04;5.40;;;2.40;;
48727;SDS011;34527;45.618;5.130;2022-08-01T07:27:31;10.15;;;2.17;;
48727;SDS011;34527;45.618;5.130;2022-08-01T07:29:59;9.55;;;2.47;;
48727;SDS011;34527;45.618;5.130;2022-08-01T07:32:25;6.95;;;2.40;;
48727;SDS011;34527;45.618;5.130;2022-08-01T07:34:51;6.88;;;2.38;;
48727;SDS011;34527;45.618;5.130;2022-08-01T07:37:17;8.52;;;2.35;;
48727;SDS011;34527;45.618;5.130;2022-08-01T07:39:43;7.93;;;2.40;;
48727;SDS011;34527;45.618;5.130;2022-08-01T07:42:09;10.35;;;2.47;;
48727;SDS011;34527;45.618;5.130;2022-08-01T07:44:35;4.20;;;2.25;;
48727;SDS011;34527;45.618;5.130;2022-08-01T07:47:01;7.78;;;1.80;;
48727;SDS011;34527;45.618;5.130;2022-08-01T07:49:28;3.58;;;2.10;;
48727;SDS011;34527;45.618;5.130;2022-08-01T07:51:54;4.80;;;2.15;;
48727;SDS011;34527;45.618;5.130;2022-08-01T07:54:20;2.58;;;1.80;;
48727;SDS011;34527;45.618;5.130;2022-08-01T07:56:49;6.03;;;2.30;;
48727;SDS011;34527;45.618;5.130;2022-08-01T07:59:15;5.45;;;1.90;;
48727;SDS011;34527;45.618;5.130;2022-08-01T08:01:41;3.17;;;1.77;;
48727;SDS011;34527;45.618;5.130;2022-08-01T08:04:07;2.50;;;1.80;;
48727;SDS011;34527;45.618;5.130;2022-08-01T08:06:33;4.32;;;2.10;;
48727;SDS011;34527;45.618;5.130;2022-08-01T08:08:59;3.63;;;2.13;;
48727;SDS011;34527;45.618;5.130;2022-08-01T08:11:24;7.07;;;2.03;;
48727;SDS011;34527;45.618;5.130;2022-08-01T08:13:50;1.98;;;1.65;;
48727;SDS011;34527;45.618;5.130;2022-08-01T08:16:16;4.38;;;1.77;;
48727;SDS011;34527;45.618;5.130;2022-08-01T08:18:42;2.20;;;1.70;;
48727;SDS011;34527;45.618;5.130;2022-08-01T08:21:08;6.63;;;1.90;;
48727;SDS011;34527;45.618;5.130;2022-08-01T08:23:34;6.07;;;2.20;;
48727;SDS011;34527;45.618;5.130;2022-08-01T08:26:19;6.10;;;2.25;;
48727;SDS011;34527;45.618;5.130;2022-08-01T08:28:45;3.20;;;2.05;;
48727;SDS011;34527;45.618;5.130;2022-08-01T08:31:11;2.63;;;1.90;;
48727;SDS011;34527;45.618;5.130;2022-08-01T08:33:37;4.40;;;1.77;;
48727;SDS011;34527;45.618;5.130;2022-08-01T08:36:03;6.95;;;2.45;;
48727;SDS011;34527;45.618;5.130;2022-08-01T08:38:29;7.65;;;1.98;;
48727;SDS011;34527;45.618;5.130;2022-08-01T08:40:55;3.83;;;1.90;;
48727;SDS011;34527;45.618;5.130;2022-08-01T08:43:22;2.47;;;1.92;;
48727;SDS011;34527;45.618;5.130;2022-08-01T08:45:50;5.45;;;1.80;;
48727;SDS011;34527;45.618;5.130;2022-08-01T08:48:16;4.50;;;1.77;;
48727;SDS011;34527;45.618;5.130;2022-08-01T08:50:43;4.18;;;2.13;;
48727;SDS011;34527;45.618;5.130;2022-08-01T08:53:13;5.53;;;2.17;;
48727;SDS011;34527;45.618;5.130;2022-08-01T08:55:41;3.80;;;1.95;;
48727;SDS011;34527;45.618;5.130;2022-08-01T08:58:14;3.63;;;1.60;;
48727;SDS011;34527;45.618;5.130;2022-08-01T09:00:44;4.13;;;1.70;;
48727;SDS011;34527;45.618;5.130;2022-08-01T09:03:10;3.45;;;1.67;;
48727;SDS011;34527;45.618;5.130;2022-08-01T09:05:37;2.92;;;1.40;;
48727;SDS011;34527;45.618;5.130;2022-08-01T09:08:07;2.92;;;1.55;;
48727;SDS011;34527;45.618;5.130;2022-08-01T09:10:33;2.88;;;1.52;;
48727;SDS011;34527;45.618;5.130;2022-08-01T09:13:03;2.83;;;1.77;;
48727;SDS011;34527;45.618;5.130;2022-08-01T09:15:38;3.30;;;1.67;;
48727;SDS011;34527;45.618;5.130;2022-08-01T09:18:06;3.75;;;2.22;;
48727;SDS011;34527;45.618;5.130;2022-08-01T09:20:32;2.65;;;1.70;;
48727;SDS011;34527;45.618;5.130;2022-08-01T09:23:01;2.85;;;1.48;;
48727;SDS011;34527;45.618;5.130;2022-08-01T09:25:27;3.92;;;1.70;;
48727;SDS011;34527;45.618;5.130;2022-08-01T09:28:05;1.98;;;1.48;;
48727;SDS011;34527;45.618;5.130;2022-08-01T09:30:37;1.27;;;1.10;;
48727;SDS011;34527;45.618;5.130;2022-08-01T09:33:04;3.33;;;1.75;;
48727;SDS011;34527;45.618;5.130;2022-08-01T09:35:32;2.58;;;1.50;;
48727;SDS011;34527;45.618;5.130;2022-08-01T09:38:11;1.42;;;1.33;;
48727;SDS011;34527;45.618;5.130;2022-08-01T09:40:53;2.75;;;1.50;;
48727;SDS011;34527;45.618;5.130;2022-08-01T09:45:48;1.40;;;1.30;;
48727;SDS011;34527;45.618;5.130;2022-08-01T09:48:14;2.53;;;1.20;;
48727;SDS011;34527;45.618;5.130;2022-08-01T09:50:42;3.25;;;1.40;;
48727;SDS011;34527;45.618;5.130;2022-08-01T09:53:10;3.83;;;1.48;;
48727;SDS011;34527;45.618;5.130;2022-08-01T09:55:37;3.05;;;1.60;;
48727;SDS011;34527;45.618;5.130;2022-08-01T09:58:03;3.65;;;1.30;;
48727;SDS011;34527;45.618;5.130;2022-08-01T10:00:30;4.00;;;1.27;;
48727;SDS011;34527;45.618;5.130;2022-08-01T10:02:57;3.30;;;1.25;;
48727;SDS011;34527;45.618;5.130;2022-08-01T10:05:30;1.33;;;1.23;;
48727;SDS011;34527;45.618;5.130;2022-08-01T10:08:03;6.40;;;1.42;;
48727;SDS011;34527;45.618;5.130;2022-08-01T10:10:30;2.75;;;1.30;;
48727;SDS011;34527;45.618;5.130;2022-08-01T10:12:57;2.78;;;1.42;;
48727;SDS011;34527;45.618;5.130;2022-08-01T10:15:25;1.48;;;1.38;;
48727;SDS011;34527;45.618;5.130;2022-08-01T10:18:00;2.15;;;1.58;;
48727;SDS011;34527;45.618;5.130;2022-08-01T10:20:32;2.17;;;1.55;;
48727;SDS011;34527;45.618;5.130;2022-08-01T10:23:00;3.88;;;1.58;;
48727;SDS011;34527;45.618;5.130;2022-08-01T10:25:28;3.30;;;1.40;;
48727;SDS011;34527;45.618;5.130;2022-08-01T10:27:58;1.25;;;1.15;;
48727;SDS011;34527;45.618;5.130;2022-08-01T10:30:26;1.73;;;1.10;;
48727;SDS011;34527;45.618;5.130;2022-08-01T10:32:53;1.88;;;1.10;;
48727;SDS011;34527;45.618;5.130;2022-08-01T10:35:21;2.85;;;1.20;;
48727;SDS011;34527;45.618;5.130;2022-08-01T10:37:47;1.30;;;1.10;;
48727;SDS011;34527;45.618;5.130;2022-08-01T10:40:16;1.52;;;1.30;;
48727;SDS011;34527;45.618;5.130;2022-08-01T10:42:45;1.00;;;1.00;;
48727;SDS011;34527;45.618;5.130;2022-08-01T10:45:14;1.17;;;1.00;;
48727;SDS011;34527;45.618;5.130;2022-08-01T10:47:48;1.48;;;1.38;;
48727;SDS011;34527;45.618;5.130;2022-08-01T10:50:27;1.30;;;1.20;;
48727;SDS011;34527;45.618;5.130;2022-08-01T10:53:30;2.08;;;1.20;;
48727;SDS011;34527;45.618;5.130;2022-08-01T10:58:35;1.30;;;1.20;;
48727;SDS011;34527;45.618;5.130;2022-08-01T11:03:43;1.48;;;0.90;;
48727;SDS011;34527;45.618;5.130;2022-08-01T11:09:00;3.00;;;1.33;;
48727;SDS011;34527;45.618;5.130;2022-08-01T11:11:28;5.22;;;1.30;;
48727;SDS011;34527;45.618;5.130;2022-08-01T11:18:53;1.40;;;1.00;;
48727;SDS011;34527;45.618;5.130;2022-08-01T11:21:19;1.10;;;1.10;;
48727;SDS011;34527;45.618;5.130;2022-08-01T11:23:49;1.35;;;1.23;;
48727;SDS011;34527;45.618;5.130;2022-08-01T11:26:18;1.40;;;1.30;;
48727;SDS011;34527;45.618;5.130;2022-08-01T11:28:46;2.10;;;1.45;;
48727;SDS011;34527;45.618;5.130;2022-08-01T11:31:32;1.15;;;0.93;;
48727;SDS011;34527;45.618;5.130;2022-08-01T11:33:59;2.47;;;1.10;;
48727;SDS011;34527;45.618;5.130;2022-08-01T11:36:26;1.88;;;1.02;;
48727;SDS011;34527;45.618;5.130;2022-08-01T11:41:31;4.38;;;1.38;;
48727;SDS011;34527;45.618;5.130;2022-08-01T11:44:06;2.97;;;1.33;;
48727;SDS011;34527;45.618;5.130;2022-08-01T11:47:18;1.10;;;1.00;;
48727;SDS011;34527;45.618;5.130;2022-08-01T11:52:10;3.20;;;1.63;;
48727;SDS011;34527;45.618;5.130;2022-08-01T11:57:05;1.30;;;1.10;;
48727;SDS011;34527;45.618;5.130;2022-08-01T11:59:41;3.22;;;1.20;;
48727;SDS011;34527;45.618;5.130;2022-08-01T12:02:29;1.00;;;0.93;;
48727;SDS011;34527;45.618;5.130;2022-08-01T12:07:30;1.10;;;1.00;;
48727;SDS011;34527;45.618;5.130;2022-08-01T12:12:46;1.15;;;0.90;;
48727;SDS011;34527;45.618;5.130;2022-08-01T12:15:29;2.33;;;1.17;;
48727;SDS011;34527;45.618;5.130;2022-08-01T12:18:07;1.55;;;1.20;;
48727;SDS011;34527;45.618;5.130;2022-08-01T12:20:44;1.30;;;1.02;;
48727;SDS011;34527;45.618;5.130;2022-08-01T12:23:19;3.35;;;1.10;;
48727;SDS011;34527;45.618;5.130;2022-08-01T12:25:57;0.80;;;0.80;;
48727;SDS011;34527;45.618;5.130;2022-08-01T12:28:38;1.42;;;1.17;;
48727;SDS011;34527;45.618;5.130;2022-08-01T12:31:13;1.50;;;1.10;;
48727;SDS011;34527;45.618;5.130;2022-08-01T12:33:40;1.13;;;1.02;;
48727;SDS011;34527;45.618;5.130;2022-08-01T12:36:26;3.72;;;1.05;;
48727;SDS011;34527;45.618;5.130;2022-08-01T12:38:54;1.33;;;1.00;;
48727;SDS011;34527;45.618;5.130;2022-08-01T12:41:22;1.33;;;1.10;;
48727;SDS011;34527;45.618;5.130;2022-08-01T12:43:50;2.80;;;1.10;;
48727;SDS011;34527;45.618;5.130;2022-08-01T12:46:16;1.00;;;0.93;;
48727;SDS011;34527;45.618;5.130;2022-08-01T12:48:43;0.68;;;0.68;;
48727;SDS011;34527;45.618;5.130;2022-08-01T12:51:09;4.47;;;1.13;;
48727;SDS011;34527;45.618;5.130;2022-08-01T12:53:38;2.03;;;0.82;;
48727;SDS011;34527;45.618;5.130;2022-08-01T12:56:09;2.80;;;1.00;;
48727;SDS011;34527;45.618;5.130;2022-08-01T12:58:36;0.95;;;0.95;;
48727;SDS011;34527;45.618;5.130;2022-08-01T13:01:10;1.30;;;0.98;;
48727;SDS011;34527;45.618;5.130;2022-08-01T13:04:00;1.05;;;0.90;;
48727;SDS011;34527;45.618;5.130;2022-08-01T13:06:32;2.95;;;0.90;;
48727;SDS011;34527;45.618;5.130;2022-08-01T13:09:10;2.25;;;0.80;;
48727;SDS011;34527;45.618;5.130;2022-08-01T13:11:39;2.85;;;0.85;;
48727;SDS011;34527;45.618;5.130;2022-08-01T13:14:07;1.33;;;0.98;;
48727;SDS011;34527;45.618;5.130;2022-08-01T13:16:56;0.70;;;0.70;;
48727;SDS011;34527;45.618;5.130;2022-08-01T13:19:44;1.52;;;0.85;;
48727;SDS011;34527;45.618;5.130;2022-08-01T13:22:20;1.55;;;0.80;;
48727;SDS011;34527;45.618;5.130;2022-08-01T13:25:15;5.90;;;1.17;;
48727;SDS011;34527;45.618;5.130;2022-08-01T13:27:47;1.98;;;0.95;;
48727;SDS011;34527;45.618;5.130;2022-08-01T13:30:38;1.25;;;0.80;;
48727;SDS011;34527;45.618;5.130;2022-08-01T13:33:04;0.70;;;0.70;;
48727;SDS011;34527;45.618;5.130;2022-08-01T13:35:30;1.80;;;0.90;;
48727;SDS011;34527;45.618;5.130;2022-08-01T13:37:58;3.42;;;1.00;;
48727;SDS011;34527;45.618;5.130;2022-08-01T13:40:32;2.95;;;0.90;;
48727;SDS011;34527;45.618;5.130;2022-08-01T13:42:58;1.10;;;1.00;;
48727;SDS011;34527;45.618;5.130;2022-08-01T13:45:24;1.50;;;1.10;;
48727;SDS011;34527;45.618;5.130;2022-08-01T13:47:50;1.98;;;1.00;;
48727;SDS011;34527;45.618;5.130;2022-08-01T13:50:17;1.15;;;0.80;;
48727;SDS011;34527;45.618;5.130;2022-08-01T13:52:48;1.02;;;1.00;;
48727;SDS011;34527;45.618;5.130;2022-08-01T13:55:14;1.20;;;1.10;;
48727;SDS011;34527;45.618;5.130;2022-08-01T13:57:40;2.30;;;1.05;;
48727;SDS011;34527;45.618;5.130;2022-08-01T14:00:06;1.10;;;1.00;;
48727;SDS011;34527;45.618;5.130;2022-08-01T14:02:34;1.20;;;1.10;;
48727;SDS011;34527;45.618;5.130;2022-08-01T14:05:00;2.78;;;1.10;;
48727;SDS011;34527;45.618;5.130;2022-08-01T14:07:26;2.45;;;1.17;;
48727;SDS011;34527;45.618;5.130;2022-08-01T14:09:53;1.17;;;0.95;;
48727;SDS011;34527;45.618;5.130;2022-08-01T14:12:18;1.33;;;1.17;;
48727;SDS011;34527;45.618;5.130;2022-08-01T14:14:44;1.40;;;1.20;;
48727;SDS011;34527;45.618;5.130;2022-08-01T14:17:10;1.20;;;1.10;;
48727;SDS011;34527;45.618;5.130;2022-08-01T14:19:36;1.75;;;1.30;;
48727;SDS011;34527;45.618;5.130;2022-08-01T14:22:02;1.42;;;1.33;;
48727;SDS011;34527;45.618;5.130;2022-08-01T14:24:28;3.42;;;1.20;;
48727;SDS011;34527;45.618;5.130;2022-08-01T14:26:54;1.25;;;1.10;;
48727;SDS011;34527;45.618;5.130;2022-08-01T14:29:20;6.13;;;1.40;;
48727;SDS011;34527;45.618;5.130;2022-08-01T14:31:46;1.40;;;1.30;;
48727;SDS011;34527;45.618;5.130;2022-08-01T14:34:12;2.28;;;1.13;;
48727;SDS011;34527;45.618;5.130;2022-08-01T14:36:38;2.85;;;1.40;;
48727;SDS011;34527;45.618;5.130;2022-08-01T14:39:04;2.13;;;1.50;;
48727;SDS011;34527;45.618;5.130;2022-08-01T14:41:30;3.63;;;1.30;;
48727;SDS011;34527;45.618;5.130;2022-08-01T14:43:56;2.88;;;1.40;;
48727;SDS011;34527;45.618;5.130;2022-08-01T14:46:24;1.48;;;1.27;;
48727;SDS011;34527;45.618;5.130;2022-08-01T14:48:50;2.55;;;1.20;;
48727;SDS011;34527;45.618;5.130;2022-08-01T14:51:16;1.27;;;1.17;;
48727;SDS011;34527;45.618;5.130;2022-08-01T14:53:42;4.20;;;1.30;;
48727;SDS011;34527;45.618;5.130;2022-08-01T14:56:09;1.30;;;1.27;;
48727;SDS011;34527;45.618;5.130;2022-08-01T14:58:36;1.98;;;1.30;;
48727;SDS011;34527;45.618;5.130;2022-08-01T15:01:02;1.67;;;1.17;;
48727;SDS011;34527;45.618;5.130;2022-08-01T15:03:30;5.78;;;2.03;;
48727;SDS011;34527;45.618;5.130;2022-08-01T15:05:56;2.35;;;1.25;;
48727;SDS011;34527;45.618;5.130;2022-08-01T15:08:23;2.70;;;1.40;;
48727;SDS011;34527;45.618;5.130;2022-08-01T15:10:48;1.83;;;1.27;;
48727;SDS011;34527;45.618;5.130;2022-08-01T15:13:14;1.70;;;1.60;;
48727;SDS011;34527;45.618;5.130;2022-08-01T15:15:40;1.85;;;1.20;;
48727;SDS011;34527;45.618;5.130;2022-08-01T15:18:06;1.48;;;1.27;;
48727;SDS011;34527;45.618;5.130;2022-08-01T15:20:32;4.18;;;1.23;;
48727;SDS011;34527;45.618;5.130;2022-08-01T15:22:58;4.25;;;1.48;;
48727;SDS011;34527;45.618;5.130;2022-08-01T15:25:24;2.53;;;1.00;;
48727;SDS011;34527;45.618;5.130;2022-08-01T15:27:49;2.00;;;1.30;;
48727;SDS011;34527;45.618;5.130;2022-08-01T15:30:16;1.52;;;1.27;;
48727;SDS011;34527;45.618;5.130;2022-08-01T15:32:42;1.10;;;1.00;;
48727;SDS011;34527;45.618;5.130;2022-08-01T15:35:08;1.25;;;1.15;;
48727;SDS011;34527;45.618;5.130;2022-08-01T15:37:35;1.85;;;1.10;;
48727;SDS011;34527;45.618;5.130;2022-08-01T15:40:01;3.28;;;1.20;;
48727;SDS011;34527;45.618;5.130;2022-08-01T15:42:27;3.55;;;1.50;;